createdAt,value
2022-08-20T00:02:15.513Z,96845.25
2022-08-20T00:04:44.662Z,96840.59
2022-08-20T00:07:14.611Z,96840.73
2022-08-20T00:09:43.444Z,96839.57
2022-08-20T00:12:16.159Z,96843.43
2022-08-20T00:14:44.332Z,96845.71
2022-08-20T00:17:12.414Z,96843.49
2022-08-20T00:19:40.481Z,96842.52
2022-08-20T00:22:08.611Z,96844.95
2022-08-20T00:24:36.785Z,96847.58
2022-08-20T00:27:05.370Z,96847.02
2022-08-20T00:29:33.436Z,96846.64
2022-08-20T00:32:01.559Z,96842.50
2022-08-20T00:34:30.409Z,96840.80
2022-08-20T00:36:58.510Z,96840.95
2022-08-20T00:39:26.590Z,96838.30
2022-08-20T00:41:55.189Z,96836.64
2022-08-20T00:44:23.323Z,96834.34
2022-08-20T00:46:53.673Z,96833.05
2022-08-20T00:49:28.295Z,96828.70
2022-08-20T00:52:07.784Z,96824.52
2022-08-20T00:54:39.917Z,96820.13
2022-08-20T00:57:19.698Z,96813.88
2022-08-20T00:59:49.960Z,96810.75
2022-08-20T01:02:21.514Z,96805.69
2022-08-20T01:04:54.810Z,96810.66
2022-08-20T01:07:32.696Z,96807.13
2022-08-20T01:10:04.945Z,96809.14
2022-08-20T01:12:32.948Z,96811.59
2022-08-20T01:15:04.703Z,96812.88
2022-08-20T01:17:36.394Z,96817.46
2022-08-20T01:20:13.897Z,96811.96
2022-08-20T01:23:30.197Z,96813.15
2022-08-20T01:26:25.603Z,96802.86
2022-08-20T01:28:58.671Z,96797.31
2022-08-20T01:31:30.236Z,96793.22
2022-08-20T01:34:01.692Z,96790.37
2022-08-20T01:36:51.563Z,96792.98
2022-08-20T01:39:23.726Z,96796.93
2022-08-20T01:42:03.421Z,96805.02
2022-08-20T01:44:32.615Z,96799.80
2022-08-20T01:47:12.670Z,96796.52
2022-08-20T01:49:46.672Z,96791.13
2022-08-20T01:52:41.601Z,96784.83
2022-08-20T01:55:10.626Z,96792.98
2022-08-20T01:57:39.991Z,96792.95
2022-08-20T02:00:20.091Z,96795.98
2022-08-20T02:02:50.627Z,96795.73
2022-08-20T02:05:19.932Z,96796.80
2022-08-20T02:07:48.136Z,96797.88
2022-08-20T02:10:18.412Z,96805.32
2022-08-20T02:12:46.874Z,96812.28
2022-08-20T02:15:15.582Z,96807.97
2022-08-20T02:17:44.997Z,96798.44
2022-08-20T02:20:17.925Z,96795.19
2022-08-20T02:22:58.842Z,96793.02
2022-08-20T02:25:30.676Z,96786.42
2022-08-20T02:28:06.321Z,96782.77
2022-08-20T02:30:39.248Z,96778.38
2022-08-20T02:33:10.683Z,96779.62
2022-08-20T02:35:42.919Z,96781.64
2022-08-20T02:38:11.770Z,96772.76
2022-08-20T02:40:40.873Z,96764.84
2022-08-20T02:43:08.924Z,96762.48
2022-08-20T02:45:43.664Z,96764.11
2022-08-20T02:48:23.613Z,96757.29
2022-08-20T02:51:05.110Z,96755.63
2022-08-20T02:53:36.513Z,96754.77
2022-08-20T02:56:06.362Z,96756.86
2022-08-20T02:58:35.383Z,96758.64
2022-08-20T03:01:06.942Z,96761.55
2022-08-20T03:03:35.459Z,96761.29
2022-08-20T03:06:04.613Z,96770.11
2022-08-20T03:08:33.004Z,96771.35
2022-08-20T03:11:01.216Z,96774.69
2022-08-20T03:13:29.296Z,96777.42
2022-08-20T03:16:02.337Z,96776.13
2022-08-20T03:18:34.972Z,96770.42
2022-08-20T03:21:04.984Z,96763.70
2022-08-20T03:23:35.153Z,96763.33
2022-08-20T03:26:05.651Z,96768.77
2022-08-20T03:28:34.241Z,96770.76
2022-08-20T03:31:03.183Z,96773.66
2022-08-20T03:33:34.017Z,96776.46
2022-08-20T03:36:02.027Z,96776.20
2022-08-20T03:38:32.862Z,96778.38
2022-08-20T03:41:02.428Z,96779.19
2022-08-20T03:43:31.379Z,96776.06
2022-08-20T03:45:59.966Z,96775.00
2022-08-20T03:48:29.568Z,96771.21
2022-08-20T03:51:00.968Z,96768.91
2022-08-20T03:53:31.905Z,96766.33
2022-08-20T03:56:02.440Z,96764.30
2022-08-20T03:58:36.096Z,96765.81
2022-08-20T04:01:07.479Z,96770.55
2022-08-20T04:03:41.495Z,96770.11
2022-08-20T04:06:09.535Z,96770.60
2022-08-20T04:08:40.431Z,96769.09
2022-08-20T04:11:08.993Z,96765.74
2022-08-20T04:13:41.476Z,96766.28
2022-08-20T04:16:14.759Z,96771.02
2022-08-20T04:19:01.710Z,96766.00
2022-08-20T04:21:35.604Z,96769.80
2022-08-20T04:24:05.860Z,96772.20
2022-08-20T04:26:36.606Z,96772.40
2022-08-20T04:29:05.237Z,96766.68
2022-08-20T04:31:33.795Z,96764.79
2022-08-20T04:34:03.738Z,96763.80
2022-08-20T04:36:31.983Z,96768.63
2022-08-20T04:38:59.987Z,96767.53
2022-08-20T04:41:28.375Z,96767.14
2022-08-20T04:43:56.905Z,96775.64
2022-08-20T04:46:28.919Z,96779.13
2022-08-20T04:48:57.651Z,96785.08
2022-08-20T04:51:26.940Z,96785.89
2022-08-20T04:53:57.528Z,96782.14
2022-08-20T04:56:30.685Z,96783.95
2022-08-20T04:59:00.825Z,96777.68
2022-08-20T05:01:28.941Z,96768.01
2022-08-20T05:03:58.099Z,96767.87
2022-08-20T05:06:30.697Z,96767.52
2022-08-20T05:09:00.856Z,96766.09
2022-08-20T05:11:33.381Z,96763.48
2022-08-20T05:14:05.757Z,96759.08
2022-08-20T05:16:38.106Z,96762.31
2022-08-20T05:19:09.195Z,96764.70
2022-08-20T05:21:38.019Z,96765.21
2022-08-20T05:24:07.380Z,96767.33
2022-08-20T05:26:36.125Z,96763.91
2022-08-20T05:29:05.691Z,96765.19
2022-08-20T05:31:34.956Z,96764.23
2022-08-20T05:34:12.523Z,96764.59
2022-08-20T05:36:44.829Z,96765.15
2022-08-20T05:39:13.877Z,96771.28
2022-08-20T05:41:42.388Z,96777.39
2022-08-20T05:44:13.601Z,96775.73
2022-08-20T05:46:44.991Z,96776.33
2022-08-20T05:49:20.266Z,96775.58
2022-08-20T05:51:51.085Z,96772.40
2022-08-20T05:54:19.502Z,96773.27
2022-08-20T05:56:47.658Z,96770.96
2022-08-20T05:59:15.913Z,96767.45
2022-08-20T06:01:44.436Z,96763.46
2022-08-20T06:04:24.918Z,96761.07
2022-08-20T06:06:56.495Z,96759.71
2022-08-20T06:09:31.898Z,96758.65
2022-08-20T06:12:04.531Z,96759.45
2022-08-20T06:14:33.033Z,96758.94
2022-08-20T06:17:10.982Z,96759.20
2022-08-20T06:19:44.471Z,96753.02
2022-08-20T06:22:19.485Z,96748.58
2022-08-20T06:24:55.591Z,96753.56
2022-08-20T06:27:24.570Z,96752.40
2022-08-20T06:29:54.102Z,96749.23
2022-08-20T06:32:31.737Z,96745.31
2022-08-20T06:35:03.927Z,96743.83
2022-08-20T06:37:33.750Z,96739.55
2022-08-20T06:40:12.679Z,96735.91
2022-08-20T06:42:47.408Z,96737.73
2022-08-20T06:45:21.610Z,96733.55
2022-08-20T06:47:49.666Z,96732.20
2022-08-20T06:50:22.000Z,96735.80
2022-08-20T06:53:03.181Z,96733.19
2022-08-20T06:55:32.941Z,96738.11
2022-08-20T06:58:04.432Z,96736.37
2022-08-20T07:00:34.297Z,96732.67
2022-08-20T07:03:04.249Z,96733.90
2022-08-20T07:05:35.005Z,96732.02
2022-08-20T07:08:03.302Z,96726.99
2022-08-20T07:10:32.057Z,96723.45
2022-08-20T07:13:00.642Z,96718.28
2022-08-20T07:15:30.478Z,96721.16
2022-08-20T07:18:02.103Z,96719.84
2022-08-20T07:20:32.189Z,96715.25
2022-08-20T07:23:01.240Z,96717.55
2022-08-20T07:25:31.283Z,96710.77
2022-08-20T07:28:14.015Z,96714.40
2022-08-20T07:31:01.244Z,96718.31
2022-08-20T07:33:42.818Z,96722.04
2022-08-20T07:36:14.104Z,96721.56
2022-08-20T07:38:47.777Z,96720.52
2022-08-20T07:41:15.888Z,96722.08
2022-08-20T07:43:47.733Z,96722.32
2022-08-20T07:46:20.653Z,96722.36
2022-08-20T07:48:51.819Z,96722.84
2022-08-20T07:51:22.564Z,96720.52
2022-08-20T07:53:52.020Z,96723.05
2022-08-20T07:56:24.778Z,96725.63
2022-08-20T07:58:55.731Z,96728.94
2022-08-20T08:01:28.639Z,96729.50
2022-08-20T08:03:57.961Z,96722.46
2022-08-20T08:06:29.394Z,96720.48
2022-08-20T08:09:04.876Z,96722.23
2022-08-20T08:11:37.832Z,96720.77
2022-08-20T08:14:08.360Z,96719.86
2022-08-20T08:16:37.578Z,96717.63
2022-08-20T08:19:09.096Z,96718.26
2022-08-20T08:21:37.333Z,96719.27
2022-08-20T08:24:05.468Z,96723.36
2022-08-20T08:26:33.484Z,96723.36
2022-08-20T08:29:02.725Z,96719.57
2022-08-20T08:31:30.823Z,96720.05
2022-08-20T08:33:59.051Z,96723.71
2022-08-20T08:36:27.470Z,96720.11
2022-08-20T08:38:56.862Z,96719.31
2022-08-20T08:41:37.600Z,96715.02
2022-08-20T08:44:11.831Z,96714.84
2022-08-20T08:46:43.990Z,96705.89
2022-08-20T08:49:16.771Z,96708.80
2022-08-20T08:51:56.591Z,96709.79
2022-08-20T08:54:29.681Z,96711.29
2022-08-20T08:56:59.838Z,96710.92
2022-08-20T08:59:48.739Z,96708.92
2022-08-20T09:02:27.933Z,96711.18
2022-08-20T09:05:00.462Z,96709.19
2022-08-20T09:07:32.633Z,96709.23
2022-08-20T09:10:02.453Z,96708.98
2022-08-20T09:12:30.515Z,96701.85
2022-08-20T09:14:58.649Z,96698.70
2022-08-20T09:17:26.715Z,96701.38
2022-08-20T09:19:54.718Z,96702.44
2022-08-20T09:22:26.111Z,96698.78
2022-08-20T09:24:54.615Z,96697.25
2022-08-20T09:27:22.587Z,96691.54
2022-08-20T09:29:50.623Z,96688.46
2022-08-20T09:32:22.261Z,96683.70
2022-08-20T09:34:56.587Z,96679.31
2022-08-20T09:37:26.758Z,96667.70
2022-08-20T09:39:55.541Z,96664.52
2022-08-20T09:42:27.185Z,96662.09
2022-08-20T09:44:55.979Z,96666.81
2022-08-20T09:47:24.238Z,96664.27
2022-08-20T09:49:52.535Z,96667.59
2022-08-20T09:52:23.286Z,96664.92
2022-08-20T09:54:55.602Z,96665.90
2022-08-20T09:57:23.981Z,96669.17
2022-08-20T09:59:57.574Z,96669.04
2022-08-20T10:02:25.785Z,96667.48
2022-08-20T10:04:53.967Z,96669.09
2022-08-20T10:07:22.052Z,96674.30
2022-08-20T10:09:50.088Z,96675.52
2022-08-20T10:12:18.207Z,96669.48
2022-08-20T10:14:46.276Z,96670.71
2022-08-20T10:17:14.322Z,96669.92
2022-08-20T10:19:42.420Z,96665.71
2022-08-20T10:22:10.543Z,96664.28
2022-08-20T10:24:38.589Z,96661.26
2022-08-20T10:27:06.677Z,96657.32
2022-08-20T10:29:35.750Z,96653.45
2022-08-20T10:32:12.610Z,96653.02
2022-08-20T10:34:43.453Z,96649.73
2022-08-20T10:37:19.374Z,96649.38
2022-08-20T10:39:47.934Z,96649.25
2022-08-20T10:42:16.127Z,96647.69
2022-08-20T10:44:44.327Z,96639.48
2022-08-20T10:47:28.153Z,96639.94
2022-08-20T10:49:59.461Z,96643.76
2022-08-20T10:52:28.478Z,96649.34
2022-08-20T10:54:56.550Z,96650.35
2022-08-20T10:57:27.566Z,96647.52
2022-08-20T10:59:57.391Z,96647.13
2022-08-20T11:02:26.731Z,96636.55
2022-08-20T11:04:55.428Z,96626.43
2022-08-20T11:07:50.531Z,96627.85
2022-08-20T11:10:23.067Z,96621.38
2022-08-20T11:12:51.100Z,96613.02
2022-08-20T11:15:19.253Z,96604.82
2022-08-20T11:17:47.574Z,96599.52
2022-08-20T11:20:18.201Z,96597.61
2022-08-20T11:22:46.615Z,96599.34
2022-08-20T11:25:15.022Z,96598.11
2022-08-20T11:27:46.872Z,96597.91
2022-08-20T11:30:20.149Z,96592.42
2022-08-20T11:32:48.520Z,96585.98
2022-08-20T11:38:05.755Z,96582.51
2022-08-20T11:40:34.547Z,96584.73
2022-08-20T11:43:18.506Z,96580.55
2022-08-20T11:45:49.944Z,96576.53
2022-08-20T11:48:18.310Z,96573.21
2022-08-20T11:50:47.710Z,96570.86
2022-08-20T11:53:16.210Z,96565.42
2022-08-20T11:55:45.238Z,96562.18
2022-08-20T11:58:13.723Z,96557.63
2022-08-20T12:00:41.850Z,96555.59
2022-08-20T12:03:11.933Z,96554.19
2022-08-20T12:05:42.919Z,96556.71
2022-08-20T12:08:26.736Z,96555.21
2022-08-20T12:10:59.669Z,96560.02
2022-08-20T12:13:47.911Z,96559.80
2022-08-20T12:16:19.383Z,96557.88
2022-08-20T12:18:48.155Z,96559.36
2022-08-20T12:21:17.144Z,96559.27
2022-08-20T12:23:46.143Z,96560.81
2022-08-20T12:26:16.848Z,96558.88
2022-08-20T12:28:44.846Z,96557.86
2022-08-20T12:31:12.957Z,96555.02
2022-08-20T12:33:41.349Z,96551.88
2022-08-20T12:36:09.380Z,96544.90
2022-08-20T12:38:37.612Z,96548.41
2022-08-20T12:41:06.447Z,96550.58
2022-08-20T12:43:34.530Z,96561.55
2022-08-20T12:46:02.577Z,96564.66
2022-08-20T12:48:30.603Z,96568.15
2022-08-20T12:50:58.680Z,96574.60
2022-08-20T12:53:26.760Z,96577.91
2022-08-20T12:55:54.694Z,96578.60
2022-08-20T12:58:22.821Z,96584.14
2022-08-20T13:00:51.443Z,96586.86
2022-08-20T13:03:21.148Z,96585.46
2022-08-20T13:05:49.602Z,96582.42
2022-08-20T13:08:19.481Z,96578.07
2022-08-20T13:10:48.295Z,96582.84
2022-08-20T13:13:20.981Z,96588.77
2022-08-20T13:15:51.228Z,96590.75
2022-08-20T13:18:20.406Z,96590.61
2022-08-20T13:20:49.261Z,96585.63
2022-08-20T13:23:17.438Z,96579.06
2022-08-20T13:25:45.520Z,96584.19
2022-08-20T13:28:13.663Z,96591.19
2022-08-20T13:30:41.829Z,96598.46
2022-08-20T13:33:09.897Z,96601.46
2022-08-20T13:35:38.024Z,96605.89
2022-08-20T13:38:06.124Z,96607.33
2022-08-20T13:40:34.623Z,96614.11
2022-08-20T13:43:06.735Z,96631.02
2022-08-20T13:45:37.641Z,96654.10
2022-08-20T13:48:14.487Z,96661.52
2022-08-20T13:50:46.881Z,96667.68
2022-08-20T13:53:16.146Z,96673.95
2022-08-20T13:55:45.085Z,96680.64
2022-08-20T13:58:13.484Z,96678.90
2022-08-20T14:00:41.665Z,96682.81
2022-08-20T14:03:09.834Z,96682.42
2022-08-20T14:05:38.872Z,96687.38
2022-08-20T14:08:12.187Z,96701.60
2022-08-20T14:10:42.585Z,96707.66
2022-08-20T14:13:15.436Z,96715.88
2022-08-20T14:15:45.295Z,96720.36
2022-08-20T14:18:14.889Z,96724.94
2022-08-20T14:20:45.580Z,96726.95
2022-08-20T14:23:15.206Z,96727.10
2022-08-20T14:25:47.330Z,96734.40
2022-08-20T14:28:21.463Z,96735.60
2022-08-20T14:30:52.953Z,96736.64
2022-08-20T14:33:23.968Z,96735.71
2022-08-20T14:35:53.177Z,96729.80
2022-08-20T14:38:21.761Z,96727.50
2022-08-20T14:40:50.806Z,96720.44
2022-08-20T14:43:19.827Z,96718.98
2022-08-20T14:45:48.009Z,96716.80
2022-08-20T14:48:16.137Z,96714.60
2022-08-20T14:50:44.595Z,96714.73
2022-08-20T14:53:12.635Z,96712.69
2022-08-20T14:55:40.710Z,96711.55
2022-08-20T14:58:11.430Z,96709.46
2022-08-20T15:00:39.942Z,96712.19
2022-08-20T15:03:08.399Z,96715.02
2022-08-20T15:05:39.648Z,96719.29
2022-08-20T15:08:10.725Z,96721.98
2022-08-20T15:10:39.554Z,96723.83
2022-08-20T15:13:08.542Z,96734.20
2022-08-20T15:15:36.981Z,96738.58
2022-08-20T15:18:05.998Z,96736.94
2022-08-20T15:20:35.345Z,96743.55
2022-08-20T15:23:04.841Z,96744.80
2022-08-20T15:25:36.531Z,96744.20
2022-08-20T15:28:09.150Z,96741.34
2022-08-20T15:30:40.685Z,96732.52
2022-08-20T15:33:11.512Z,96733.81
2022-08-20T15:35:39.747Z,96731.63
2022-08-20T15:38:07.862Z,96731.64
2022-08-20T15:40:36.017Z,96735.16
2022-08-20T15:43:06.014Z,96732.90
2022-08-20T15:45:35.256Z,96725.31
2022-08-20T15:48:17.211Z,96719.48
2022-08-20T15:50:48.245Z,96720.40
2022-08-20T15:53:27.375Z,96718.11
2022-08-20T15:56:16.667Z,96703.98
2022-08-20T15:59:21.282Z,96701.38
2022-08-20T16:01:55.323Z,96698.77
2022-08-20T16:04:35.384Z,96693.20
2022-08-20T16:07:10.089Z,96686.66
2022-08-20T16:10:16.209Z,96675.31
2022-08-20T16:12:49.831Z,96672.35
2022-08-20T16:15:28.751Z,96664.91
2022-08-20T16:18:15.497Z,96664.38
2022-08-20T16:20:53.028Z,96660.92
2022-08-20T16:23:32.544Z,96656.90
2022-08-20T16:26:15.775Z,96655.19
2022-08-20T16:28:49.481Z,96654.22
2022-08-20T16:31:21.017Z,96654.91
2022-08-20T16:34:02.420Z,96653.71
2022-08-20T16:37:03.225Z,96655.73
2022-08-20T16:39:48.648Z,96648.26
2022-08-20T16:42:24.000Z,96644.54
2022-08-20T16:44:55.215Z,96641.88
2022-08-20T16:47:31.306Z,96649.08
2022-08-20T16:50:20.171Z,96662.99
2022-08-20T16:52:50.277Z,96687.59
2022-08-20T16:55:21.248Z,96705.48
2022-08-20T16:57:50.075Z,96723.95
2022-08-20T17:00:26.803Z,96735.16
2022-08-20T17:02:54.841Z,96738.18
2022-08-20T17:05:26.519Z,96738.33
2022-08-20T17:08:01.830Z,96732.24
2022-08-20T17:10:34.719Z,96736.98
2022-08-20T17:13:14.778Z,96739.86
2022-08-20T17:15:45.001Z,96750.25
2022-08-20T17:18:24.539Z,96749.36
2022-08-20T17:20:52.950Z,96756.41
2022-08-20T17:23:21.917Z,96759.73
2022-08-20T17:26:02.951Z,96763.91
2022-08-20T17:28:35.240Z,96764.86
2022-08-20T17:31:03.863Z,96765.79
2022-08-20T17:33:39.089Z,96766.69
2022-08-20T17:36:11.694Z,96770.54
2022-08-20T17:38:52.229Z,96775.71
2022-08-20T17:41:25.729Z,96779.27
2022-08-20T17:44:17.691Z,96780.94
2022-08-20T17:46:48.249Z,96777.10
2022-08-20T17:49:21.337Z,96782.29
2022-08-20T17:51:52.877Z,96783.01
2022-08-20T17:54:30.102Z,96785.02
2022-08-20T17:57:12.073Z,96782.14
2022-08-20T18:00:00.960Z,96777.67
2022-08-20T18:02:31.353Z,96780.48
2022-08-20T18:04:59.817Z,96787.32
2022-08-20T18:07:32.879Z,96784.90
2022-08-20T18:10:10.893Z,96785.63
2022-08-20T18:13:00.143Z,96786.38
2022-08-20T18:15:40.929Z,96787.48
2022-08-20T18:18:31.655Z,96791.52
2022-08-20T18:21:32.422Z,96791.16
2022-08-20T18:24:03.116Z,96791.41
2022-08-20T18:26:44.201Z,96793.73
2022-08-20T18:29:17.186Z,96800.23
2022-08-20T18:32:07.222Z,96799.88
2022-08-20T18:34:40.175Z,96796.26
2022-08-20T18:37:17.293Z,96794.75
2022-08-20T18:39:48.128Z,96800.63
2022-08-20T18:42:21.933Z,96795.30
2022-08-20T18:44:53.177Z,96786.74
2022-08-20T18:47:34.338Z,96783.70
2022-08-20T18:50:16.658Z,96778.35
2022-08-20T18:52:51.221Z,96774.00
2022-08-20T18:55:39.948Z,96772.50
2022-08-20T18:58:11.589Z,96769.67
2022-08-20T19:00:47.811Z,96766.77
2022-08-20T19:03:22.265Z,96763.08
2022-08-20T19:06:04.361Z,96759.32
2022-08-20T19:08:46.421Z,96752.70
2022-08-20T19:11:39.550Z,96753.22
2022-08-20T19:14:07.670Z,96748.17
2022-08-20T19:16:40.922Z,96743.82
2022-08-20T19:19:20.308Z,96738.52
2022-08-20T19:21:49.431Z,96736.43
2022-08-20T19:24:25.269Z,96735.36
2022-08-20T19:27:02.675Z,96735.35
2022-08-20T19:29:50.036Z,96734.19
2022-08-20T19:32:31.234Z,96736.05
2022-08-20T19:35:02.869Z,96734.83
2022-08-20T19:37:44.319Z,96732.42
2022-08-20T19:40:30.152Z,96733.42
2022-08-20T19:43:02.466Z,96737.19
2022-08-20T19:45:54.695Z,96739.21
2022-08-20T19:48:49.462Z,96733.96
2022-08-20T19:51:26.422Z,96739.32
2022-08-20T19:53:54.444Z,96739.79
2022-08-20T19:56:25.214Z,96739.66
2022-08-20T19:59:05.867Z,96735.79
2022-08-20T20:01:36.055Z,96736.81
2022-08-20T20:04:07.984Z,96736.88
2022-08-20T20:06:41.704Z,96736.55
2022-08-20T20:09:19.549Z,96734.63
2022-08-20T20:11:54.476Z,96731.99
2022-08-20T20:14:31.367Z,96725.83
2022-08-20T20:17:00.914Z,96725.48
2022-08-20T20:19:29.173Z,96723.09
2022-08-20T20:22:19.278Z,96721.77
2022-08-20T20:24:57.867Z,96723.27
2022-08-20T20:27:28.935Z,96721.98
2022-08-20T20:30:21.531Z,96716.91
2022-08-20T20:32:50.640Z,96714.09
2022-08-20T20:35:29.174Z,96711.91
2022-08-20T20:38:02.533Z,96710.86
2022-08-20T20:40:44.767Z,96707.33
2022-08-20T20:43:42.121Z,96706.73
2022-08-20T20:46:17.864Z,96703.33
2022-08-20T20:48:48.980Z,96700.30
2022-08-20T20:51:26.323Z,96706.73
2022-08-20T20:53:57.476Z,96714.54
2022-08-20T20:56:31.664Z,96728.71
2022-08-20T20:59:06.189Z,96728.14
2022-08-20T21:01:49.504Z,96727.08
2022-08-20T21:04:23.463Z,96730.05
2022-08-20T21:06:54.075Z,96735.90
2022-08-20T21:09:24.512Z,96741.77
2022-08-20T21:11:52.681Z,96740.96
2022-08-20T21:14:20.937Z,96740.20
2022-08-20T21:16:49.078Z,96736.24
2022-08-20T21:19:18.035Z,96734.65
2022-08-20T21:21:46.204Z,96732.04
2022-08-20T21:24:14.212Z,96732.36
2022-08-20T21:26:42.777Z,96730.95
2022-08-20T21:29:15.739Z,96728.63
2022-08-20T21:31:46.781Z,96730.23
2022-08-20T21:34:16.164Z,96727.73
2022-08-20T21:36:46.643Z,96726.94
2022-08-20T21:39:14.959Z,96724.35
2022-08-20T21:41:44.367Z,96720.55
2022-08-20T21:44:24.797Z,96722.12
2022-08-20T21:46:55.917Z,96718.88
2022-08-20T21:49:25.609Z,96716.89
2022-08-20T21:51:54.003Z,96714.27
2022-08-20T21:54:23.532Z,96711.86
2022-08-20T21:57:02.071Z,96709.80
2022-08-20T21:59:30.828Z,96705.16
2022-08-20T22:02:01.291Z,96704.48
2022-08-20T22:04:32.323Z,96700.26
2022-08-20T22:07:04.190Z,96699.16
2022-08-20T22:09:34.028Z,96694.14
2022-08-20T22:12:02.746Z,96693.02
2022-08-20T22:14:31.022Z,96690.92
2022-08-20T22:16:59.266Z,96695.11
2022-08-20T22:19:27.428Z,96693.63
2022-08-20T22:21:56.636Z,96694.29
2022-08-20T22:24:28.864Z,96691.55
2022-08-20T22:26:57.505Z,96692.86
2022-08-20T22:29:25.533Z,96689.58
2022-08-20T22:31:53.937Z,96688.88
2022-08-20T22:34:22.593Z,96686.73
2022-08-20T22:36:54.142Z,96683.19
2022-08-20T22:39:22.185Z,96677.05
2022-08-20T22:41:50.306Z,96677.55
2022-08-20T22:44:18.342Z,96680.31
2022-08-20T22:46:48.965Z,96681.61
2022-08-20T22:49:24.079Z,96681.19
2022-08-20T22:51:52.802Z,96678.62
2022-08-20T22:54:23.711Z,96672.59
2022-08-20T22:56:52.979Z,96669.36
2022-08-20T22:59:21.896Z,96668.29
2022-08-20T23:01:52.504Z,96665.66
2022-08-20T23:04:25.886Z,96659.95
2022-08-20T23:06:55.411Z,96656.77
2022-08-20T23:09:24.788Z,96658.98
2022-08-20T23:11:53.114Z,96660.60
2022-08-20T23:14:22.074Z,96658.23
2022-08-20T23:17:01.609Z,96657.60
2022-08-20T23:19:30.008Z,96656.11
2022-08-20T23:21:58.194Z,96655.05
2022-08-20T23:24:26.760Z,96652.20
2022-08-20T23:26:54.919Z,96648.67
2022-08-20T23:29:25.723Z,96651.84
2022-08-20T23:31:56.523Z,96657.52
2022-08-20T23:34:26.131Z,96659.58
2022-08-20T23:36:56.677Z,96664.42
2022-08-20T23:39:25.286Z,96663.01
2022-08-20T23:41:53.921Z,96659.93
2022-08-20T23:44:25.685Z,96654.16
2022-08-20T23:46:58.078Z,96649.84
2022-08-20T23:49:27.256Z,96650.71
2022-08-20T23:51:56.046Z,96650.73
2022-08-20T23:54:24.368Z,96661.67
2022-08-20T23:56:57.064Z,96663.80
2022-08-20T23:59:26.369Z,96668.29
